sensor_id;sensor_type;location;lat;lon;timestamp;pressure;altitude;pressure_sealevel;temperature;humidity
78431;BME280;67727;50.236;22.452;2023-05-16T00:01:24;99110.80;;;13.18;79.29
78431;BME280;67727;50.236;22.452;2023-05-16T00:03:52;99112.20;;;13.15;79.56
78431;BME280;67727;50.236;22.452;2023-05-16T00:06:19;99117.77;;;13.14;79.70
78431;BME280;67727;50.236;22.452;2023-05-16T00:08:46;99120.22;;;13.13;79.88
78431;BME280;67727;50.236;22.452;2023-05-16T00:11:15;99118.05;;;13.12;79.61
78431;BME280;67727;50.236;22.452;2023-05-16T00:13:42;99117.35;;;13.13;79.42
78431;BME280;67727;50.236;22.452;2023-05-16T00:16:09;99116.67;;;13.15;79.20
78431;BME280;67727;50.236;22.452;2023-05-16T00:18:37;99117.52;;;13.17;79.17
78431;BME280;67727;50.236;22.452;2023-05-16T00:21:04;99120.23;;;13.16;79.20
78431;BME280;67727;50.236;22.452;2023-05-16T00:23:31;99125.76;;;13.14;79.03
78431;BME280;67727;50.236;22.452;2023-05-16T00:25:58;99127.80;;;13.10;78.83
78431;BME280;67727;50.236;22.452;2023-05-16T00:28:25;99130.18;;;13.06;78.70
78431;BME280;67727;50.236;22.452;2023-05-16T00:30:52;99134.16;;;13.03;78.73
78431;BME280;67727;50.236;22.452;2023-05-16T00:33:18;99136.48;;;13.01;78.90
78431;BME280;67727;50.236;22.452;2023-05-16T00:35:45;99138.70;;;12.99;79.06
78431;BME280;67727;50.236;22.452;2023-05-16T00:38:12;99140.05;;;12.98;78.89
78431;BME280;67727;50.236;22.452;2023-05-16T00:40:39;99145.17;;;12.97;79.32
78431;BME280;67727;50.236;22.452;2023-05-16T00:43:06;99146.45;;;12.96;79.25
78431;BME280;67727;50.236;22.452;2023-05-16T00:45:33;99140.84;;;12.95;79.15
78431;BME280;67727;50.236;22.452;2023-05-16T00:47:59;99137.94;;;12.96;79.19
78431;BME280;67727;50.236;22.452;2023-05-16T00:50:26;99143.08;;;12.97;79.22
78431;BME280;67727;50.236;22.452;2023-05-16T00:52:53;99141.77;;;12.99;79.41
78431;BME280;67727;50.236;22.452;2023-05-16T00:55:21;99144.18;;;12.99;79.01
78431;BME280;67727;50.236;22.452;2023-05-16T00:57:48;99145.58;;;12.97;78.81
78431;BME280;67727;50.236;22.452;2023-05-16T01:00:16;99151.38;;;12.93;78.97
78431;BME280;67727;50.236;22.452;2023-05-16T01:02:47;99149.67;;;12.91;78.98
78431;BME280;67727;50.236;22.452;2023-05-16T01:05:17;99146.48;;;12.90;79.14
78431;BME280;67727;50.236;22.452;2023-05-16T01:07:44;99154.88;;;12.90;78.97
78431;BME280;67727;50.236;22.452;2023-05-16T01:10:11;99158.39;;;12.90;78.76
78431;BME280;67727;50.236;22.452;2023-05-16T01:12:47;99163.77;;;12.90;78.68
78431;BME280;67727;50.236;22.452;2023-05-16T01:15:21;99165.23;;;12.88;78.91
78431;BME280;67727;50.236;22.452;2023-05-16T01:17:58;99175.89;;;12.86;78.93
78431;BME280;67727;50.236;22.452;2023-05-16T01:20:48;99176.96;;;12.85;78.90
78431;BME280;67727;50.236;22.452;2023-05-16T01:23:33;99181.22;;;12.84;79.11
78431;BME280;67727;50.236;22.452;2023-05-16T01:28:38;99187.45;;;12.82;78.95
78431;BME280;67727;50.236;22.452;2023-05-16T01:31:05;99187.71;;;12.78;79.34
78431;BME280;67727;50.236;22.452;2023-05-16T01:33:32;99187.31;;;12.75;79.34
78431;BME280;67727;50.236;22.452;2023-05-16T01:36:25;99189.51;;;12.72;79.15
78431;BME280;67727;50.236;22.452;2023-05-16T01:39:06;99183.95;;;12.67;79.53
78431;BME280;67727;50.236;22.452;2023-05-16T01:41:49;99188.03;;;12.63;79.50
78431;BME280;67727;50.236;22.452;2023-05-16T01:44:38;99189.41;;;12.58;79.32
78431;BME280;67727;50.236;22.452;2023-05-16T01:47:13;99187.92;;;12.53;79.47
78431;BME280;67727;50.236;22.452;2023-05-16T01:49:51;99186.04;;;12.49;79.47
78431;BME280;67727;50.236;22.452;2023-05-16T01:52:27;99186.80;;;12.44;79.35
78431;BME280;67727;50.236;22.452;2023-05-16T01:54:58;99190.27;;;12.38;79.31
78431;BME280;67727;50.236;22.452;2023-05-16T01:57:27;99193.40;;;12.34;79.19
78431;BME280;67727;50.236;22.452;2023-05-16T01:59:56;99191.77;;;12.30;79.22
78431;BME280;67727;50.236;22.452;2023-05-16T02:02:24;99192.59;;;12.24;78.77
78431;BME280;67727;50.236;22.452;2023-05-16T02:04:51;99188.54;;;12.18;79.19
78431;BME280;67727;50.236;22.452;2023-05-16T02:07:18;99191.58;;;12.13;79.45
78431;BME280;67727;50.236;22.452;2023-05-16T02:09:45;99191.88;;;12.08;79.74
78431;BME280;67727;50.236;22.452;2023-05-16T02:12:11;99187.70;;;12.05;79.57
78431;BME280;67727;50.236;22.452;2023-05-16T02:14:38;99186.33;;;12.02;79.09
78431;BME280;67727;50.236;22.452;2023-05-16T02:17:06;99189.42;;;11.98;78.87
78431;BME280;67727;50.236;22.452;2023-05-16T02:19:32;99190.75;;;11.93;78.74
78431;BME280;67727;50.236;22.452;2023-05-16T02:21:59;99188.86;;;11.89;79.04
78431;BME280;67727;50.236;22.452;2023-05-16T02:24:26;99186.86;;;11.83;79.33
78431;BME280;67727;50.236;22.452;2023-05-16T02:26:53;99187.67;;;11.78;79.11
78431;BME280;67727;50.236;22.452;2023-05-16T02:29:20;99190.23;;;11.74;79.51
78431;BME280;67727;50.236;22.452;2023-05-16T02:31:46;99196.09;;;11.69;79.10
78431;BME280;67727;50.236;22.452;2023-05-16T02:34:13;99199.29;;;11.66;79.47
78431;BME280;67727;50.236;22.452;2023-05-16T02:36:43;99208.98;;;11.63;79.09
78431;BME280;67727;50.236;22.452;2023-05-16T02:39:10;99213.10;;;11.58;79.09
78431;BME280;67727;50.236;22.452;2023-05-16T02:41:36;99219.14;;;11.54;79.56
78431;BME280;67727;50.236;22.452;2023-05-16T02:44:04;99223.91;;;11.50;79.18
78431;BME280;67727;50.236;22.452;2023-05-16T02:46:33;99226.16;;;11.46;79.29
78431;BME280;67727;50.236;22.452;2023-05-16T02:49:00;99227.33;;;11.44;79.08
78431;BME280;67727;50.236;22.452;2023-05-16T02:51:27;99222.52;;;11.41;78.80
78431;BME280;67727;50.236;22.452;2023-05-16T02:53:54;99219.65;;;11.37;79.07
78431;BME280;67727;50.236;22.452;2023-05-16T02:56:28;99223.81;;;11.34;79.36
78431;BME280;67727;50.236;22.452;2023-05-16T02:58:55;99220.36;;;11.29;79.31
78431;BME280;67727;50.236;22.452;2023-05-16T03:01:22;99221.67;;;11.26;79.29
78431;BME280;67727;50.236;22.452;2023-05-16T03:03:49;99220.10;;;11.23;79.14
78431;BME280;67727;50.236;22.452;2023-05-16T03:06:16;99222.41;;;11.20;78.93
78431;BME280;67727;50.236;22.452;2023-05-16T03:08:43;99220.61;;;11.19;79.33
78431;BME280;67727;50.236;22.452;2023-05-16T03:11:10;99214.35;;;11.16;79.37
78431;BME280;67727;50.236;22.452;2023-05-16T03:13:37;99210.80;;;11.12;79.18
78431;BME280;67727;50.236;22.452;2023-05-16T03:16:04;99212.73;;;11.08;79.27
78431;BME280;67727;50.236;22.452;2023-05-16T03:18:31;99214.67;;;11.05;79.07
78431;BME280;67727;50.236;22.452;2023-05-16T03:20:58;99220.23;;;11.03;79.48
78431;BME280;67727;50.236;22.452;2023-05-16T03:23:25;99228.61;;;11.03;79.42
78431;BME280;67727;50.236;22.452;2023-05-16T03:25:53;99231.88;;;11.03;79.51
78431;BME280;67727;50.236;22.452;2023-05-16T03:28:19;99231.84;;;11.02;79.56
78431;BME280;67727;50.236;22.452;2023-05-16T03:30:46;99234.48;;;11.00;79.69
78431;BME280;67727;50.236;22.452;2023-05-16T03:33:13;99227.34;;;10.99;80.12
78431;BME280;67727;50.236;22.452;2023-05-16T03:35:43;99227.17;;;10.99;80.35
78431;BME280;67727;50.236;22.452;2023-05-16T03:38:11;99222.80;;;10.99;80.13
78431;BME280;67727;50.236;22.452;2023-05-16T03:40:38;99219.81;;;11.02;80.34
78431;BME280;67727;50.236;22.452;2023-05-16T03:43:06;99227.31;;;11.04;80.19
78431;BME280;67727;50.236;22.452;2023-05-16T03:45:32;99232.27;;;11.07;80.27
78431;BME280;67727;50.236;22.452;2023-05-16T03:47:59;99244.98;;;11.10;80.40
78431;BME280;67727;50.236;22.452;2023-05-16T03:50:26;99253.12;;;11.13;80.53
78431;BME280;67727;50.236;22.452;2023-05-16T03:52:53;99249.91;;;11.14;80.92
78431;BME280;67727;50.236;22.452;2023-05-16T03:55:20;99252.49;;;11.20;83.05
78431;BME280;67727;50.236;22.452;2023-05-16T03:57:47;99252.83;;;11.31;84.64
78431;BME280;67727;50.236;22.452;2023-05-16T04:00:15;99252.58;;;11.51;85.57
78431;BME280;67727;50.236;22.452;2023-05-16T04:02:42;99252.27;;;11.78;85.25
78431;BME280;67727;50.236;22.452;2023-05-16T04:05:10;99252.11;;;12.08;85.94
78431;BME280;67727;50.236;22.452;2023-05-16T04:07:38;99260.29;;;12.42;85.65
78431;BME280;67727;50.236;22.452;2023-05-16T04:10:05;99260.68;;;12.77;85.29
78431;BME280;67727;50.236;22.452;2023-05-16T04:12:32;99258.80;;;13.07;84.14
78431;BME280;67727;50.236;22.452;2023-05-16T04:14:59;99254.87;;;13.34;83.55
78431;BME280;67727;50.236;22.452;2023-05-16T04:17:25;99247.72;;;13.62;82.96
78431;BME280;67727;50.236;22.452;2023-05-16T04:19:52;99252.26;;;13.90;82.80
78431;BME280;67727;50.236;22.452;2023-05-16T04:22:22;99258.56;;;14.19;82.58
78431;BME280;67727;50.236;22.452;2023-05-16T04:24:49;99264.17;;;14.48;82.35
78431;BME280;67727;50.236;22.452;2023-05-16T04:27:16;99268.41;;;14.79;81.53
78431;BME280;67727;50.236;22.452;2023-05-16T04:29:45;99272.20;;;15.08;81.00
78431;BME280;67727;50.236;22.452;2023-05-16T04:32:12;99270.78;;;15.34;79.90
78431;BME280;67727;50.236;22.452;2023-05-16T04:34:39;99266.95;;;15.56;79.16
78431;BME280;67727;50.236;22.452;2023-05-16T04:37:06;99259.73;;;15.74;78.31
78431;BME280;67727;50.236;22.452;2023-05-16T04:39:34;99259.04;;;15.90;77.58
78431;BME280;67727;50.236;22.452;2023-05-16T04:42:01;99257.44;;;16.05;77.04
78431;BME280;67727;50.236;22.452;2023-05-16T04:44:29;99259.68;;;16.21;76.62
78431;BME280;67727;50.236;22.452;2023-05-16T04:46:56;99266.60;;;16.38;76.36
78431;BME280;67727;50.236;22.452;2023-05-16T04:49:23;99269.70;;;16.56;75.70
78431;BME280;67727;50.236;22.452;2023-05-16T04:51:50;99268.33;;;16.71;74.54
78431;BME280;67727;50.236;22.452;2023-05-16T04:54:17;99267.36;;;16.85;73.89
78431;BME280;67727;50.236;22.452;2023-05-16T04:56:44;99262.28;;;17.00;73.85
78431;BME280;67727;50.236;22.452;2023-05-16T04:59:11;99261.94;;;17.12;72.70
78431;BME280;67727;50.236;22.452;2023-05-16T05:01:38;99264.41;;;17.21;71.76
78431;BME280;67727;50.236;22.452;2023-05-16T05:04:05;99267.07;;;17.27;71.81
78431;BME280;67727;50.236;22.452;2023-05-16T05:06:32;99266.95;;;17.34;71.52
78431;BME280;67727;50.236;22.452;2023-05-16T05:09:01;99269.21;;;17.44;71.50
78431;BME280;67727;50.236;22.452;2023-05-16T05:11:28;99267.92;;;17.57;71.47
78431;BME280;67727;50.236;22.452;2023-05-16T05:13:54;99266.52;;;17.70;70.76
78431;BME280;67727;50.236;22.452;2023-05-16T05:16:22;99274.81;;;17.83;70.70
78431;BME280;67727;50.236;22.452;2023-05-16T05:18:49;99285.46;;;17.96;69.76
78431;BME280;67727;50.236;22.452;2023-05-16T05:21:16;99291.43;;;18.12;69.87
78431;BME280;67727;50.236;22.452;2023-05-16T05:23:43;99300.59;;;18.29;68.03
78431;BME280;67727;50.236;22.452;2023-05-16T05:26:11;99300.02;;;18.43;67.07
78431;BME280;67727;50.236;22.452;2023-05-16T05:28:38;99301.73;;;18.54;66.77
78431;BME280;67727;50.236;22.452;2023-05-16T05:31:05;99297.29;;;18.59;66.41
78431;BME280;67727;50.236;22.452;2023-05-16T05:33:31;99290.94;;;18.66;66.20
78431;BME280;67727;50.236;22.452;2023-05-16T05:35:58;99291.23;;;18.67;65.33
78431;BME280;67727;50.236;22.452;2023-05-16T05:38:25;99291.22;;;18.64;64.74
78431;BME280;67727;50.236;22.452;2023-05-16T05:40:52;99291.56;;;18.57;64.51
78431;BME280;67727;50.236;22.452;2023-05-16T05:43:19;99298.19;;;18.53;64.57
78431;BME280;67727;50.236;22.452;2023-05-16T05:45:46;99298.13;;;18.50;64.47
78431;BME280;67727;50.236;22.452;2023-05-16T05:48:13;99296.56;;;18.50;63.79
78431;BME280;67727;50.236;22.452;2023-05-16T05:50:40;99298.17;;;18.53;63.32
78431;BME280;67727;50.236;22.452;2023-05-16T05:53:07;99305.61;;;18.54;63.30
78431;BME280;67727;50.236;22.452;2023-05-16T05:55:33;99312.72;;;18.60;62.98
78431;BME280;67727;50.236;22.452;2023-05-16T05:58:00;99307.45;;;18.69;62.95
78431;BME280;67727;50.236;22.452;2023-05-16T06:00:27;99304.70;;;18.80;62.77
78431;BME280;67727;50.236;22.452;2023-05-16T06:02:54;99311.91;;;18.87;62.47
78431;BME280;67727;50.236;22.452;2023-05-16T06:05:22;99320.95;;;18.90;61.85
78431;BME280;67727;50.236;22.452;2023-05-16T06:07:49;99328.70;;;18.94;61.92
78431;BME280;67727;50.236;22.452;2023-05-16T06:10:16;99338.58;;;18.99;61.64
78431;BME280;67727;50.236;22.452;2023-05-16T06:12:43;99345.30;;;19.11;60.88
78431;BME280;67727;50.236;22.452;2023-05-16T06:15:10;99342.79;;;19.17;59.82
78431;BME280;67727;50.236;22.452;2023-05-16T06:17:36;99344.02;;;19.20;60.58
78431;BME280;67727;50.236;22.452;2023-05-16T06:20:04;99341.78;;;19.21;59.26
78431;BME280;67727;50.236;22.452;2023-05-16T06:22:31;99346.32;;;19.16;59.18
78431;BME280;67727;50.236;22.452;2023-05-16T06:24:58;99347.91;;;19.15;58.83
78431;BME280;67727;50.236;22.452;2023-05-16T06:27:25;99348.91;;;19.20;59.30
78431;BME280;67727;50.236;22.452;2023-05-16T06:29:51;99349.12;;;19.29;59.44
78431;BME280;67727;50.236;22.452;2023-05-16T06:32:18;99349.27;;;19.34;58.30
78431;BME280;67727;50.236;22.452;2023-05-16T06:34:45;99350.94;;;19.37;58.01
78431;BME280;67727;50.236;22.452;2023-05-16T06:37:12;99343.70;;;19.39;58.54
78431;BME280;67727;50.236;22.452;2023-05-16T06:39:41;99336.34;;;19.39;57.64
78431;BME280;67727;50.236;22.452;2023-05-16T06:42:08;99344.86;;;19.37;57.39
78431;BME280;67727;50.236;22.452;2023-05-16T06:44:36;99359.69;;;19.36;57.66
78431;BME280;67727;50.236;22.452;2023-05-16T06:47:05;99357.10;;;19.35;57.65
78431;BME280;67727;50.236;22.452;2023-05-16T06:49:33;99344.15;;;19.36;57.59
78431;BME280;67727;50.236;22.452;2023-05-16T06:51:59;99341.73;;;19.40;57.77
78431;BME280;67727;50.236;22.452;2023-05-16T06:54:29;99351.95;;;19.41;57.53
78431;BME280;67727;50.236;22.452;2023-05-16T06:56:56;99358.77;;;19.45;58.38
78431;BME280;67727;50.236;22.452;2023-05-16T06:59:23;99357.33;;;19.53;57.94
78431;BME280;67727;50.236;22.452;2023-05-16T07:01:50;99354.41;;;19.60;58.22
78431;BME280;67727;50.236;22.452;2023-05-16T07:04:18;99357.82;;;19.68;58.12
78431;BME280;67727;50.236;22.452;2023-05-16T07:06:44;99363.94;;;19.80;57.20
78431;BME280;67727;50.236;22.452;2023-05-16T07:09:11;99364.98;;;19.91;56.81
78431;BME280;67727;50.236;22.452;2023-05-16T07:11:38;99364.63;;;19.96;55.95
78431;BME280;67727;50.236;22.452;2023-05-16T07:14:05;99362.71;;;20.01;55.81
78431;BME280;67727;50.236;22.452;2023-05-16T07:16:32;99354.92;;;20.06;56.28
78431;BME280;67727;50.236;22.452;2023-05-16T07:18:59;99352.11;;;20.12;56.19
78431;BME280;67727;50.236;22.452;2023-05-16T07:21:25;99350.79;;;20.18;55.95
78431;BME280;67727;50.236;22.452;2023-05-16T07:23:55;99367.23;;;20.24;55.19
78431;BME280;67727;50.236;22.452;2023-05-16T07:26:21;99388.02;;;20.28;54.57
78431;BME280;67727;50.236;22.452;2023-05-16T07:28:49;99395.20;;;20.29;54.33
78431;BME280;67727;50.236;22.452;2023-05-16T07:31:16;99392.14;;;20.29;53.84
78431;BME280;67727;50.236;22.452;2023-05-16T07:33:46;99382.39;;;20.28;54.07
78431;BME280;67727;50.236;22.452;2023-05-16T07:36:15;99380.30;;;20.27;54.71
78431;BME280;67727;50.236;22.452;2023-05-16T07:38:42;99381.96;;;20.29;54.48
78431;BME280;67727;50.236;22.452;2023-05-16T07:41:09;99387.02;;;20.34;55.08
78431;BME280;67727;50.236;22.452;2023-05-16T07:43:36;99380.04;;;20.38;55.01
78431;BME280;67727;50.236;22.452;2023-05-16T07:46:04;99369.00;;;20.41;54.10
78431;BME280;67727;50.236;22.452;2023-05-16T07:48:31;99372.68;;;20.43;54.06
78431;BME280;67727;50.236;22.452;2023-05-16T07:50:57;99386.36;;;20.49;54.56
78431;BME280;67727;50.236;22.452;2023-05-16T07:53:24;99388.92;;;20.55;54.19
78431;BME280;67727;50.236;22.452;2023-05-16T07:55:51;99384.94;;;20.60;54.15
78431;BME280;67727;50.236;22.452;2023-05-16T07:58:18;99385.15;;;20.69;53.75
78431;BME280;67727;50.236;22.452;2023-05-16T08:00:45;99389.34;;;20.76;54.20
78431;BME280;67727;50.236;22.452;2023-05-16T08:03:12;99387.52;;;20.85;55.58
78431;BME280;67727;50.236;22.452;2023-05-16T08:05:42;99388.80;;;21.03;54.77
78431;BME280;67727;50.236;22.452;2023-05-16T08:08:09;99385.17;;;21.21;53.50
78431;BME280;67727;50.236;22.452;2023-05-16T08:10:36;99381.86;;;21.37;53.40
78431;BME280;67727;50.236;22.452;2023-05-16T08:13:03;99381.13;;;21.51;51.89
78431;BME280;67727;50.236;22.452;2023-05-16T08:15:29;99375.99;;;21.56;51.97
78431;BME280;67727;50.236;22.452;2023-05-16T08:17:57;99382.88;;;21.59;51.60
78431;BME280;67727;50.236;22.452;2023-05-16T08:20:25;99386.64;;;21.59;52.28
78431;BME280;67727;50.236;22.452;2023-05-16T08:22:52;99387.08;;;21.60;52.48
78431;BME280;67727;50.236;22.452;2023-05-16T08:25:19;99392.03;;;21.70;52.25
78431;BME280;67727;50.236;22.452;2023-05-16T08:27:48;99400.54;;;21.80;51.65
78431;BME280;67727;50.236;22.452;2023-05-16T08:30:15;99403.27;;;21.90;50.99
78431;BME280;67727;50.236;22.452;2023-05-16T08:32:42;99409.98;;;22.01;50.86
78431;BME280;67727;50.236;22.452;2023-05-16T08:35:09;99405.09;;;22.13;51.16
78431;BME280;67727;50.236;22.452;2023-05-16T08:37:36;99401.15;;;22.21;51.03
78431;BME280;67727;50.236;22.452;2023-05-16T08:40:05;99389.58;;;22.27;50.44
78431;BME280;67727;50.236;22.452;2023-05-16T08:42:34;99386.17;;;22.34;50.09
78431;BME280;67727;50.236;22.452;2023-05-16T08:45:01;99384.85;;;22.51;49.74
78431;BME280;67727;50.236;22.452;2023-05-16T08:47:30;99386.36;;;22.61;49.80
78431;BME280;67727;50.236;22.452;2023-05-16T08:49:57;99388.08;;;22.71;48.61
78431;BME280;67727;50.236;22.452;2023-05-16T08:52:27;99394.91;;;22.77;48.34
78431;BME280;67727;50.236;22.452;2023-05-16T08:54:57;99393.38;;;22.83;48.09
78431;BME280;67727;50.236;22.452;2023-05-16T08:57:26;99393.21;;;22.90;48.58
78431;BME280;67727;50.236;22.452;2023-05-16T08:59:55;99403.11;;;23.05;49.09
78431;BME280;67727;50.236;22.452;2023-05-16T09:02:22;99405.90;;;23.14;48.61
78431;BME280;67727;50.236;22.452;2023-05-16T09:04:50;99408.08;;;23.19;47.20
78431;BME280;67727;50.236;22.452;2023-05-16T09:07:17;99407.38;;;23.20;47.10
78431;BME280;67727;50.236;22.452;2023-05-16T09:09:44;99404.95;;;23.19;47.66
78431;BME280;67727;50.236;22.452;2023-05-16T09:12:11;99400.08;;;23.19;47.83
78431;BME280;67727;50.236;22.452;2023-05-16T09:14:38;99398.02;;;23.19;47.41
78431;BME280;67727;50.236;22.452;2023-05-16T09:17:08;99394.94;;;23.21;47.40
78431;BME280;67727;50.236;22.452;2023-05-16T09:19:39;99397.38;;;23.24;47.71
78431;BME280;67727;50.236;22.452;2023-05-16T09:22:13;99400.96;;;23.27;47.78
78431;BME280;67727;50.236;22.452;2023-05-16T09:24:44;99401.71;;;23.30;47.28
78431;BME280;67727;50.236;22.452;2023-05-16T09:27:14;99406.77;;;23.33;47.69
78431;BME280;67727;50.236;22.452;2023-05-16T09:29:42;99411.81;;;23.39;47.33
78431;BME280;67727;50.236;22.452;2023-05-16T09:32:13;99413.16;;;23.42;46.86
78431;BME280;67727;50.236;22.452;2023-05-16T09:34:44;99411.05;;;23.40;45.70
78431;BME280;67727;50.236;22.452;2023-05-16T09:37:14;99414.89;;;23.39;47.44
78431;BME280;67727;50.236;22.452;2023-05-16T09:39:45;99408.61;;;23.42;45.03
78431;BME280;67727;50.236;22.452;2023-05-16T09:42:17;99405.15;;;23.39;45.70
78431;BME280;67727;50.236;22.452;2023-05-16T09:44:53;99409.70;;;23.44;45.73
78431;BME280;67727;50.236;22.452;2023-05-16T09:47:22;99410.24;;;23.48;45.60
78431;BME280;67727;50.236;22.452;2023-05-16T09:49:51;99408.65;;;23.57;46.14
78431;BME280;67727;50.236;22.452;2023-05-16T09:52:19;99405.00;;;23.69;44.98
78431;BME280;67727;50.236;22.452;2023-05-16T09:54:46;99406.52;;;23.83;44.78
78431;BME280;67727;50.236;22.452;2023-05-16T09:57:19;99404.85;;;23.85;42.78
78431;BME280;67727;50.236;22.452;2023-05-16T09:59:47;99404.25;;;23.89;43.95
78431;BME280;67727;50.236;22.452;2023-05-16T10:02:14;99399.37;;;23.90;43.24
78431;BME280;67727;50.236;22.452;2023-05-16T10:04:42;99399.48;;;23.90;43.29
78431;BME280;67727;50.236;22.452;2023-05-16T10:07:08;99404.58;;;23.97;44.58
78431;BME280;67727;50.236;22.452;2023-05-16T10:09:38;99400.14;;;24.03;43.86
78431;BME280;67727;50.236;22.452;2023-05-16T10:12:07;99397.05;;;24.05;43.66
78431;BME280;67727;50.236;22.452;2023-05-16T10:14:40;99396.98;;;24.06;44.23
78431;BME280;67727;50.236;22.452;2023-05-16T10:17:11;99397.47;;;24.07;42.91
78431;BME280;67727;50.236;22.452;2023-05-16T10:19:40;99392.54;;;24.03;41.67
78431;BME280;67727;50.236;22.452;2023-05-16T10:22:09;99395.79;;;24.01;42.14
78431;BME280;67727;50.236;22.452;2023-05-16T10:24:46;99393.09;;;24.04;44.14
78431;BME280;67727;50.236;22.452;2023-05-16T10:27:16;99395.63;;;24.10;44.11
78431;BME280;67727;50.236;22.452;2023-05-16T10:29:43;99395.23;;;24.16;42.13
78431;BME280;67727;50.236;22.452;2023-05-16T10:32:11;99389.92;;;24.20;41.32
78431;BME280;67727;50.236;22.452;2023-05-16T10:34:39;99389.65;;;24.21;41.45
78431;BME280;67727;50.236;22.452;2023-05-16T10:37:07;99389.38;;;24.20;40.75
78431;BME280;67727;50.236;22.452;2023-05-16T10:39:35;99385.98;;;24.18;41.26
78431;BME280;67727;50.236;22.452;2023-05-16T10:42:04;99386.19;;;24.17;42.12
78431;BME280;67727;50.236;22.452;2023-05-16T10:44:32;99386.75;;;24.09;39.99
78431;BME280;67727;50.236;22.452;2023-05-16T10:46:59;99387.73;;;23.99;41.78
78431;BME280;67727;50.236;22.452;2023-05-16T10:49:26;99388.55;;;23.94;41.14
78431;BME280;67727;50.236;22.452;2023-05-16T10:52:14;99383.66;;;23.90;41.60
78431;BME280;67727;50.236;22.452;2023-05-16T10:54:49;99382.33;;;23.85;41.29
78431;BME280;67727;50.236;22.452;2023-05-16T10:57:18;99381.08;;;23.87;42.53
78431;BME280;67727;50.236;22.452;2023-05-16T10:59:50;99384.58;;;23.90;42.29
78431;BME280;67727;50.236;22.452;2023-05-16T11:02:24;99383.02;;;23.87;41.97
78431;BME280;67727;50.236;22.452;2023-05-16T11:04:55;99388.61;;;23.84;42.13
78431;BME280;67727;50.236;22.452;2023-05-16T11:07:30;99391.35;;;23.82;42.40
78431;BME280;67727;50.236;22.452;2023-05-16T11:10:05;99394.40;;;23.86;42.70
78431;BME280;67727;50.236;22.452;2023-05-16T11:12:47;99394.61;;;23.92;43.30
78431;BME280;67727;50.236;22.452;2023-05-16T11:17:46;99400.56;;;24.02;43.52
78431;BME280;67727;50.236;22.452;2023-05-16T11:20:40;99399.64;;;24.01;42.78
78431;BME280;67727;50.236;22.452;2023-05-16T11:26:04;99403.11;;;23.79;43.36
78431;BME280;67727;50.236;22.452;2023-05-16T11:28:31;99411.02;;;23.72;44.47
78431;BME280;67727;50.236;22.452;2023-05-16T11:31:00;99413.89;;;23.74;44.65
78431;BME280;67727;50.236;22.452;2023-05-16T11:33:30;99412.91;;;23.76;44.36
78431;BME280;67727;50.236;22.452;2023-05-16T11:36:05;99410.21;;;23.78;43.65
78431;BME280;67727;50.236;22.452;2023-05-16T11:38:33;99405.56;;;23.78;44.29
78431;BME280;67727;50.236;22.452;2023-05-16T11:41:02;99404.56;;;23.76;43.87
78431;BME280;67727;50.236;22.452;2023-05-16T11:43:36;99402.41;;;23.73;44.03
78431;BME280;67727;50.236;22.452;2023-05-16T11:46:05;99409.30;;;23.57;42.67
78431;BME280;67727;50.236;22.452;2023-05-16T11:48:33;99409.01;;;23.49;43.69
78431;BME280;67727;50.236;22.452;2023-05-16T11:51:01;99406.77;;;23.39;43.07
78431;BME280;67727;50.236;22.452;2023-05-16T11:53:31;99406.77;;;23.32;42.96
78431;BME280;67727;50.236;22.452;2023-05-16T11:55:58;99402.73;;;23.24;42.43
78431;BME280;67727;50.236;22.452;2023-05-16T11:58:27;99403.58;;;23.22;43.41
78431;BME280;67727;50.236;22.452;2023-05-16T12:00:54;99408.32;;;23.29;43.86
78431;BME280;67727;50.236;22.452;2023-05-16T12:03:21;99404.23;;;23.41;43.00
78431;BME280;67727;50.236;22.452;2023-05-16T12:05:51;99402.94;;;23.41;42.71
78431;BME280;67727;50.236;22.452;2023-05-16T12:08:19;99395.80;;;23.47;43.33
78431;BME280;67727;50.236;22.452;2023-05-16T12:10:48;99391.38;;;23.54;42.64
78431;BME280;67727;50.236;22.452;2023-05-16T12:13:20;99395.91;;;23.45;41.57
78431;BME280;67727;50.236;22.452;2023-05-16T12:15:51;99394.41;;;23.27;41.38
78431;BME280;67727;50.236;22.452;2023-05-16T12:18:18;99394.81;;;23.16;43.17
78431;BME280;67727;50.236;22.452;2023-05-16T12:20:47;99391.19;;;23.17;44.08
78431;BME280;67727;50.236;22.452;2023-05-16T12:23:13;99384.96;;;23.16;42.64
78431;BME280;67727;50.236;22.452;2023-05-16T12:25:44;99383.76;;;23.09;43.32
78431;BME280;67727;50.236;22.452;2023-05-16T12:28:13;99385.55;;;23.06;43.99
78431;BME280;67727;50.236;22.452;2023-05-16T12:30:41;99386.20;;;23.11;44.51
78431;BME280;67727;50.236;22.452;2023-05-16T12:33:11;99384.38;;;23.14;44.17
78431;BME280;67727;50.236;22.452;2023-05-16T12:35:40;99380.15;;;23.11;42.74
78431;BME280;67727;50.236;22.452;2023-05-16T12:38:09;99377.05;;;23.03;42.48
78431;BME280;67727;50.236;22.452;2023-05-16T12:40:39;99377.24;;;22.96;42.84
78431;BME280;67727;50.236;22.452;2023-05-16T12:43:19;99373.27;;;22.88;42.40
78431;BME280;67727;50.236;22.452;2023-05-16T12:45:51;99375.13;;;22.73;42.91
78431;BME280;67727;50.236;22.452;2023-05-16T12:48:18;99373.92;;;22.58;42.53
78431;BME280;67727;50.236;22.452;2023-05-16T12:50:45;99376.30;;;22.48;43.16
78431;BME280;67727;50.236;22.452;2023-05-16T12:53:15;99375.62;;;22.43;44.40
78431;BME280;67727;50.236;22.452;2023-05-16T12:55:43;99378.31;;;22.43;45.18
78431;BME280;67727;50.236;22.452;2023-05-16T12:58:10;99369.30;;;22.43;46.02
78431;BME280;67727;50.236;22.452;2023-05-16T13:00:37;99373.95;;;22.44;45.41
78431;BME280;67727;50.236;22.452;2023-05-16T13:03:05;99377.45;;;22.40;45.03
78431;BME280;67727;50.236;22.452;2023-05-16T13:05:33;99375.27;;;22.29;45.34